sensor_id;sensor_type;location;lat;lon;timestamp;P1;durP1;ratioP1;P2;durP2;ratioP2
83732;SDS011;73710;49.968;8.338;2024-03-08T05:05:47;8.32;;;4.85;;
83732;SDS011;73710;49.968;8.338;2024-03-08T05:08:12;3.70;;;2.80;;
83732;SDS011;73710;49.968;8.338;2024-03-08T05:10:38;7.33;;;4.30;;
83732;SDS011;73710;49.968;8.338;2024-03-08T05:13:03;4.93;;;3.17;;
83732;SDS011;73710;49.968;8.338;2024-03-08T05:15:28;6.57;;;3.97;;
83732;SDS011;73710;49.968;8.338;2024-03-08T05:17:54;9.63;;;3.73;;
83732;SDS011;73710;49.968;8.338;2024-03-08T05:20:20;10.13;;;4.45;;
83732;SDS011;73710;49.968;8.338;2024-03-08T05:22:47;12.48;;;5.95;;
83732;SDS011;73710;49.968;8.338;2024-03-08T05:25:12;16.73;;;5.15;;
83732;SDS011;73710;49.968;8.338;2024-03-08T05:27:39;7.72;;;4.63;;
83732;SDS011;73710;49.968;8.338;2024-03-08T05:30:05;13.70;;;5.18;;
83732;SDS011;73710;49.968;8.338;2024-03-08T05:32:31;8.05;;;5.40;;
83732;SDS011;73710;49.968;8.338;2024-03-08T05:34:56;7.43;;;3.58;;
83732;SDS011;73710;49.968;8.338;2024-03-08T05:37:22;12.32;;;6.28;;
83732;SDS011;73710;49.968;8.338;2024-03-08T05:39:47;13.20;;;4.87;;
83732;SDS011;73710;49.968;8.338;2024-03-08T05:42:13;7.32;;;4.55;;
83732;SDS011;73710;49.968;8.338;2024-03-08T05:44:38;12.27;;;4.33;;
83732;SDS011;73710;49.968;8.338;2024-03-08T05:47:06;7.63;;;4.15;;
83732;SDS011;73710;49.968;8.338;2024-03-08T05:49:32;8.57;;;5.07;;
83732;SDS011;73710;49.968;8.338;2024-03-08T05:51:57;7.53;;;5.03;;
83732;SDS011;73710;49.968;8.338;2024-03-08T05:54:22;9.77;;;4.85;;
83732;SDS011;73710;49.968;8.338;2024-03-08T05:56:49;8.00;;;4.30;;
83732;SDS011;73710;49.968;8.338;2024-03-08T05:59:17;5.82;;;3.95;;
83732;SDS011;73710;49.968;8.338;2024-03-08T06:01:43;9.70;;;4.68;;
83732;SDS011;73710;49.968;8.338;2024-03-08T06:04:08;15.60;;;5.57;;
83732;SDS011;73710;49.968;8.338;2024-03-08T06:06:36;7.97;;;4.55;;
83732;SDS011;73710;49.968;8.338;2024-03-08T06:09:02;5.72;;;4.78;;
83732;SDS011;73710;49.968;8.338;2024-03-08T06:11:34;11.88;;;5.82;;
83732;SDS011;73710;49.968;8.338;2024-03-08T06:13:59;14.95;;;4.97;;
83732;SDS011;73710;49.968;8.338;2024-03-08T06:16:28;17.87;;;8.20;;
83732;SDS011;73710;49.968;8.338;2024-03-08T06:18:57;11.65;;;4.63;;
83732;SDS011;73710;49.968;8.338;2024-03-08T06:21:23;9.10;;;4.95;;
83732;SDS011;73710;49.968;8.338;2024-03-08T06:23:52;8.48;;;4.88;;
83732;SDS011;73710;49.968;8.338;2024-03-08T06:26:22;10.93;;;5.82;;
83732;SDS011;73710;49.968;8.338;2024-03-08T06:28:49;10.60;;;4.13;;
83732;SDS011;73710;49.968;8.338;2024-03-08T06:31:15;15.60;;;5.45;;
83732;SDS011;73710;49.968;8.338;2024-03-08T06:33:41;8.10;;;3.85;;
83732;SDS011;73710;49.968;8.338;2024-03-08T06:36:07;18.00;;;4.78;;
83732;SDS011;73710;49.968;8.338;2024-03-08T06:38:33;17.80;;;6.85;;
83732;SDS011;73710;49.968;8.338;2024-03-08T06:40:58;11.53;;;4.43;;
83732;SDS011;73710;49.968;8.338;2024-03-08T06:43:24;11.05;;;4.88;;
83732;SDS011;73710;49.968;8.338;2024-03-08T06:45:57;9.70;;;5.32;;
83732;SDS011;73710;49.968;8.338;2024-03-08T06:48:22;11.07;;;4.27;;
83732;SDS011;73710;49.968;8.338;2024-03-08T06:50:48;14.50;;;6.18;;
83732;SDS011;73710;49.968;8.338;2024-03-08T06:53:13;15.17;;;7.43;;
83732;SDS011;73710;49.968;8.338;2024-03-08T06:55:39;8.88;;;5.15;;
83732;SDS011;73710;49.968;8.338;2024-03-08T06:58:05;11.07;;;4.97;;
83732;SDS011;73710;49.968;8.338;2024-03-08T07:00:32;13.55;;;5.63;;
83732;SDS011;73710;49.968;8.338;2024-03-08T07:02:57;8.20;;;4.82;;
83732;SDS011;73710;49.968;8.338;2024-03-08T07:05:26;12.00;;;6.03;;
83732;SDS011;73710;49.968;8.338;2024-03-08T07:07:52;9.05;;;4.90;;
83732;SDS011;73710;49.968;8.338;2024-03-08T07:10:18;7.72;;;3.92;;
83732;SDS011;73710;49.968;8.338;2024-03-08T07:12:44;10.00;;;4.72;;
83732;SDS011;73710;49.968;8.338;2024-03-08T07:15:09;8.80;;;5.28;;
83732;SDS011;73710;49.968;8.338;2024-03-08T07:17:39;9.50;;;5.38;;
83732;SDS011;73710;49.968;8.338;2024-03-08T07:20:05;10.25;;;4.43;;
83732;SDS011;73710;49.968;8.338;2024-03-08T07:22:36;15.75;;;6.60;;
83732;SDS011;73710;49.968;8.338;2024-03-08T07:25:02;12.38;;;5.65;;
83732;SDS011;73710;49.968;8.338;2024-03-08T07:27:33;9.05;;;4.65;;
83732;SDS011;73710;49.968;8.338;2024-03-08T07:30:02;11.45;;;5.90;;
83732;SDS011;73710;49.968;8.338;2024-03-08T07:32:28;10.38;;;5.72;;
83732;SDS011;73710;49.968;8.338;2024-03-08T07:34:57;8.93;;;5.75;;
83732;SDS011;73710;49.968;8.338;2024-03-08T07:37:23;11.35;;;6.32;;
83732;SDS011;73710;49.968;8.338;2024-03-08T07:39:49;15.52;;;7.07;;
83732;SDS011;73710;49.968;8.338;2024-03-08T07:42:15;13.10;;;5.13;;
83732;SDS011;73710;49.968;8.338;2024-03-08T07:44:41;11.65;;;5.60;;
83732;SDS011;73710;49.968;8.338;2024-03-08T07:47:07;13.67;;;7.40;;
83732;SDS011;73710;49.968;8.338;2024-03-08T07:49:34;9.93;;;5.20;;
83732;SDS011;73710;49.968;8.338;2024-03-08T07:52:00;11.23;;;5.78;;
83732;SDS011;73710;49.968;8.338;2024-03-08T07:54:26;8.80;;;5.27;;
83732;SDS011;73710;49.968;8.338;2024-03-08T07:56:51;7.73;;;3.27;;
83732;SDS011;73710;49.968;8.338;2024-03-08T07:59:17;9.27;;;6.57;;
83732;SDS011;73710;49.968;8.338;2024-03-08T08:01:43;15.10;;;5.80;;
83732;SDS011;73710;49.968;8.338;2024-03-08T08:04:09;18.20;;;7.40;;
83732;SDS011;73710;49.968;8.338;2024-03-08T08:06:38;13.48;;;6.07;;
83732;SDS011;73710;49.968;8.338;2024-03-08T08:09:06;17.33;;;7.00;;
83732;SDS011;73710;49.968;8.338;2024-03-08T08:11:39;17.05;;;6.05;;
83732;SDS011;73710;49.968;8.338;2024-03-08T08:14:06;15.20;;;6.57;;
83732;SDS011;73710;49.968;8.338;2024-03-08T08:16:34;13.68;;;6.65;;
83732;SDS011;73710;49.968;8.338;2024-03-08T08:19:01;11.05;;;5.28;;
83732;SDS011;73710;49.968;8.338;2024-03-08T08:21:28;8.13;;;3.60;;
83732;SDS011;73710;49.968;8.338;2024-03-08T08:23:54;7.63;;;4.80;;
83732;SDS011;73710;49.968;8.338;2024-03-08T08:26:20;13.48;;;4.95;;
83732;SDS011;73710;49.968;8.338;2024-03-08T08:28:46;14.55;;;5.95;;
83732;SDS011;73710;49.968;8.338;2024-03-08T08:31:11;9.38;;;5.47;;
83732;SDS011;73710;49.968;8.338;2024-03-08T08:33:38;11.82;;;5.35;;
83732;SDS011;73710;49.968;8.338;2024-03-08T08:36:03;17.15;;;6.20;;
83732;SDS011;73710;49.968;8.338;2024-03-08T08:38:29;13.27;;;5.40;;
83732;SDS011;73710;49.968;8.338;2024-03-08T08:40:54;10.63;;;5.40;;
83732;SDS011;73710;49.968;8.338;2024-03-08T08:43:19;15.13;;;6.70;;
83732;SDS011;73710;49.968;8.338;2024-03-08T08:45:49;14.95;;;7.78;;
83732;SDS011;73710;49.968;8.338;2024-03-08T08:48:15;12.32;;;6.40;;
83732;SDS011;73710;49.968;8.338;2024-03-08T08:50:41;16.23;;;6.07;;
83732;SDS011;73710;49.968;8.338;2024-03-08T08:53:06;20.57;;;7.47;;
83732;SDS011;73710;49.968;8.338;2024-03-08T08:55:32;8.38;;;5.53;;
83732;SDS011;73710;49.968;8.338;2024-03-08T08:58:00;10.68;;;5.55;;
83732;SDS011;73710;49.968;8.338;2024-03-08T09:00:26;14.35;;;6.25;;
83732;SDS011;73710;49.968;8.338;2024-03-08T09:02:52;12.10;;;5.93;;
83732;SDS011;73710;49.968;8.338;2024-03-08T09:05:20;14.27;;;6.63;;
83732;SDS011;73710;49.968;8.338;2024-03-08T09:07:46;11.65;;;6.18;;
83732;SDS011;73710;49.968;8.338;2024-03-08T09:10:12;21.42;;;6.35;;
83732;SDS011;73710;49.968;8.338;2024-03-08T09:12:38;13.73;;;6.97;;
83732;SDS011;73710;49.968;8.338;2024-03-08T09:15:05;8.43;;;4.68;;
83732;SDS011;73710;49.968;8.338;2024-03-08T09:17:33;10.02;;;4.65;;
83732;SDS011;73710;49.968;8.338;2024-03-08T09:19:59;10.52;;;5.20;;
83732;SDS011;73710;49.968;8.338;2024-03-08T09:22:24;15.52;;;5.50;;
83732;SDS011;73710;49.968;8.338;2024-03-08T09:24:50;10.05;;;5.65;;
83732;SDS011;73710;49.968;8.338;2024-03-08T09:27:15;11.82;;;5.18;;
83732;SDS011;73710;49.968;8.338;2024-03-08T09:29:41;10.10;;;5.72;;
83732;SDS011;73710;49.968;8.338;2024-03-08T09:32:06;12.10;;;4.32;;
83732;SDS011;73710;49.968;8.338;2024-03-08T09:34:32;16.88;;;6.03;;
83732;SDS011;73710;49.968;8.338;2024-03-08T09:36:57;12.27;;;4.43;;
83732;SDS011;73710;49.968;8.338;2024-03-08T09:39:23;5.40;;;3.97;;
83732;SDS011;73710;49.968;8.338;2024-03-08T09:41:49;12.93;;;5.88;;
83732;SDS011;73710;49.968;8.338;2024-03-08T09:44:18;12.17;;;6.47;;
83732;SDS011;73710;49.968;8.338;2024-03-08T09:46:44;8.25;;;4.70;;
83732;SDS011;73710;49.968;8.338;2024-03-08T09:49:12;8.80;;;5.88;;
83732;SDS011;73710;49.968;8.338;2024-03-08T09:51:38;13.57;;;6.10;;
83732;SDS011;73710;49.968;8.338;2024-03-08T09:54:05;10.00;;;6.10;;
83732;SDS011;73710;49.968;8.338;2024-03-08T09:56:37;14.85;;;5.70;;
83732;SDS011;73710;49.968;8.338;2024-03-08T09:59:06;13.55;;;4.93;;
83732;SDS011;73710;49.968;8.338;2024-03-08T10:01:50;10.75;;;6.35;;
83732;SDS011;73710;49.968;8.338;2024-03-08T10:04:17;8.75;;;3.67;;
83732;SDS011;73710;49.968;8.338;2024-03-08T10:06:43;14.15;;;6.05;;
83732;SDS011;73710;49.968;8.338;2024-03-08T10:09:12;9.05;;;4.55;;
83732;SDS011;73710;49.968;8.338;2024-03-08T10:11:37;10.57;;;4.30;;
83732;SDS011;73710;49.968;8.338;2024-03-08T10:14:04;11.32;;;4.47;;
83732;SDS011;73710;49.968;8.338;2024-03-08T10:16:31;8.43;;;3.97;;
83732;SDS011;73710;49.968;8.338;2024-03-08T10:18:56;9.32;;;4.43;;
83732;SDS011;73710;49.968;8.338;2024-03-08T10:21:22;11.50;;;5.30;;
83732;SDS011;73710;49.968;8.338;2024-03-08T10:23:48;8.23;;;4.07;;
83732;SDS011;73710;49.968;8.338;2024-03-08T10:26:14;7.55;;;4.72;;
83732;SDS011;73710;49.968;8.338;2024-03-08T10:28:41;5.20;;;3.25;;
83732;SDS011;73710;49.968;8.338;2024-03-08T10:31:10;7.93;;;3.75;;
83732;SDS011;73710;49.968;8.338;2024-03-08T10:33:35;9.98;;;5.15;;
83732;SDS011;73710;49.968;8.338;2024-03-08T10:36:03;10.52;;;5.10;;
83732;SDS011;73710;49.968;8.338;2024-03-08T10:38:31;11.35;;;4.75;;
83732;SDS011;73710;49.968;8.338;2024-03-08T10:41:00;11.05;;;5.68;;
83732;SDS011;73710;49.968;8.338;2024-03-08T10:43:28;9.18;;;4.80;;
83732;SDS011;73710;49.968;8.338;2024-03-08T10:46:06;11.77;;;6.35;;
83732;SDS011;73710;49.968;8.338;2024-03-08T10:48:50;11.02;;;5.70;;
83732;SDS011;73710;49.968;8.338;2024-03-08T10:51:18;8.75;;;5.35;;
83732;SDS011;73710;49.968;8.338;2024-03-08T10:53:44;17.42;;;5.35;;
83732;SDS011;73710;49.968;8.338;2024-03-08T10:56:13;8.43;;;4.85;;
83732;SDS011;73710;49.968;8.338;2024-03-08T10:58:39;8.73;;;4.97;;
83732;SDS011;73710;49.968;8.338;2024-03-08T11:01:06;13.25;;;6.00;;
83732;SDS011;73710;49.968;8.338;2024-03-08T11:06:21;9.95;;;5.05;;
83732;SDS011;73710;49.968;8.338;2024-03-08T11:08:54;12.80;;;6.13;;
83732;SDS011;73710;49.968;8.338;2024-03-08T11:11:38;10.55;;;4.45;;
83732;SDS011;73710;49.968;8.338;2024-03-08T11:14:07;11.50;;;4.95;;
83732;SDS011;73710;49.968;8.338;2024-03-08T11:19:34;12.20;;;4.93;;
83732;SDS011;73710;49.968;8.338;2024-03-08T11:22:00;10.52;;;5.22;;
83732;SDS011;73710;49.968;8.338;2024-03-08T11:24:26;8.95;;;5.20;;
83732;SDS011;73710;49.968;8.338;2024-03-08T11:26:54;8.90;;;4.88;;
83732;SDS011;73710;49.968;8.338;2024-03-08T11:34:36;12.65;;;5.57;;
83732;SDS011;73710;49.968;8.338;2024-03-08T11:37:06;11.27;;;5.07;;
83732;SDS011;73710;49.968;8.338;2024-03-08T11:39:38;9.90;;;4.75;;
83732;SDS011;73710;49.968;8.338;2024-03-08T11:42:05;9.05;;;4.32;;
83732;SDS011;73710;49.968;8.338;2024-03-08T11:44:30;11.73;;;5.82;;
83732;SDS011;73710;49.968;8.338;2024-03-08T11:46:56;12.13;;;6.38;;
83732;SDS011;73710;49.968;8.338;2024-03-08T11:49:22;13.27;;;5.40;;
83732;SDS011;73710;49.968;8.338;2024-03-08T11:51:51;12.05;;;6.03;;
83732;SDS011;73710;49.968;8.338;2024-03-08T11:54:18;12.10;;;6.45;;
83732;SDS011;73710;49.968;8.338;2024-03-08T11:56:44;11.75;;;5.90;;
83732;SDS011;73710;49.968;8.338;2024-03-08T11:59:12;12.25;;;5.43;;
83732;SDS011;73710;49.968;8.338;2024-03-08T12:01:40;14.00;;;5.95;;
83732;SDS011;73710;49.968;8.338;2024-03-08T12:04:06;13.52;;;5.95;;
83732;SDS011;73710;49.968;8.338;2024-03-08T12:06:38;13.95;;;6.75;;
83732;SDS011;73710;49.968;8.338;2024-03-08T12:09:07;15.32;;;6.65;;
83732;SDS011;73710;49.968;8.338;2024-03-08T12:11:36;9.85;;;5.20;;
83732;SDS011;73710;49.968;8.338;2024-03-08T12:14:03;12.30;;;6.18;;
83732;SDS011;73710;49.968;8.338;2024-03-08T12:16:28;23.85;;;7.30;;
83732;SDS011;73710;49.968;8.338;2024-03-08T12:18:54;9.35;;;5.15;;
83732;SDS011;73710;49.968;8.338;2024-03-08T12:21:20;9.63;;;5.90;;
83732;SDS011;73710;49.968;8.338;2024-03-08T12:23:47;15.57;;;6.72;;
83732;SDS011;73710;49.968;8.338;2024-03-08T12:26:16;7.97;;;4.50;;
83732;SDS011;73710;49.968;8.338;2024-03-08T12:28:43;13.10;;;5.63;;
83732;SDS011;73710;49.968;8.338;2024-03-08T12:31:13;15.07;;;6.43;;
83732;SDS011;73710;49.968;8.338;2024-03-08T12:33:54;12.88;;;6.50;;
83732;SDS011;73710;49.968;8.338;2024-03-08T12:36:24;12.02;;;6.35;;
83732;SDS011;73710;49.968;8.338;2024-03-08T12:38:50;14.18;;;6.82;;
83732;SDS011;73710;49.968;8.338;2024-03-08T12:41:19;14.93;;;7.22;;
83732;SDS011;73710;49.968;8.338;2024-03-08T12:43:46;8.60;;;4.70;;
83732;SDS011;73710;49.968;8.338;2024-03-08T12:46:18;14.20;;;6.63;;
83732;SDS011;73710;49.968;8.338;2024-03-08T12:48:47;10.18;;;6.35;;
83732;SDS011;73710;49.968;8.338;2024-03-08T12:51:13;13.05;;;5.85;;
83732;SDS011;73710;49.968;8.338;2024-03-08T12:53:41;10.57;;;5.70;;
83732;SDS011;73710;49.968;8.338;2024-03-08T12:56:10;14.18;;;6.72;;
83732;SDS011;73710;49.968;8.338;2024-03-08T12:58:36;13.77;;;6.80;;
83732;SDS011;73710;49.968;8.338;2024-03-08T13:01:03;13.00;;;6.22;;
83732;SDS011;73710;49.968;8.338;2024-03-08T13:03:34;10.93;;;6.22;;
83732;SDS011;73710;49.968;8.338;2024-03-08T13:06:04;14.25;;;5.40;;
83732;SDS011;73710;49.968;8.338;2024-03-08T13:08:33;12.63;;;5.63;;
83732;SDS011;73710;49.968;8.338;2024-03-08T13:11:05;12.05;;;6.10;;
83732;SDS011;73710;49.968;8.338;2024-03-08T13:13:36;11.32;;;5.97;;
83732;SDS011;73710;49.968;8.338;2024-03-08T13:16:04;14.38;;;6.38;;
83732;SDS011;73710;49.968;8.338;2024-03-08T13:18:33;13.10;;;6.32;;
83732;SDS011;73710;49.968;8.338;2024-03-08T13:21:02;15.00;;;7.03;;
83732;SDS011;73710;49.968;8.338;2024-03-08T13:23:31;16.67;;;7.03;;
83732;SDS011;73710;49.968;8.338;2024-03-08T13:25:56;11.48;;;6.03;;
83732;SDS011;73710;49.968;8.338;2024-03-08T13:28:22;11.57;;;6.15;;
83732;SDS011;73710;49.968;8.338;2024-03-08T13:30:48;16.20;;;6.28;;
83732;SDS011;73710;49.968;8.338;2024-03-08T13:33:13;14.35;;;6.45;;
83732;SDS011;73710;49.968;8.338;2024-03-08T13:35:39;12.05;;;6.78;;
83732;SDS011;73710;49.968;8.338;2024-03-08T13:38:06;11.57;;;6.38;;
83732;SDS011;73710;49.968;8.338;2024-03-08T13:40:34;13.40;;;6.13;;
83732;SDS011;73710;49.968;8.338;2024-03-08T13:42:59;12.07;;;7.78;;
83732;SDS011;73710;49.968;8.338;2024-03-08T13:45:26;13.48;;;6.07;;
83732;SDS011;73710;49.968;8.338;2024-03-08T13:47:52;13.32;;;6.53;;
83732;SDS011;73710;49.968;8.338;2024-03-08T13:50:18;12.38;;;5.93;;
83732;SDS011;73710;49.968;8.338;2024-03-08T13:52:50;13.25;;;6.00;;
83732;SDS011;73710;49.968;8.338;2024-03-08T13:55:19;14.07;;;5.93;;
83732;SDS011;73710;49.968;8.338;2024-03-08T13:57:44;12.02;;;5.68;;
83732;SDS011;73710;49.968;8.338;2024-03-08T14:00:11;12.27;;;5.82;;
83732;SDS011;73710;49.968;8.338;2024-03-08T14:02:40;14.18;;;6.50;;
83732;SDS011;73710;49.968;8.338;2024-03-08T14:05:09;11.32;;;5.18;;
83732;SDS011;73710;49.968;8.338;2024-03-08T14:07:36;10.43;;;5.32;;
83732;SDS011;73710;49.968;8.338;2024-03-08T14:10:01;12.10;;;5.95;;
83732;SDS011;73710;49.968;8.338;2024-03-08T14:12:27;12.23;;;5.55;;
83732;SDS011;73710;49.968;8.338;2024-03-08T14:14:52;11.85;;;6.38;;
83732;SDS011;73710;49.968;8.338;2024-03-08T14:17:18;8.93;;;4.82;;
83732;SDS011;73710;49.968;8.338;2024-03-08T14:19:43;15.57;;;6.25;;
83732;SDS011;73710;49.968;8.338;2024-03-08T14:22:09;12.40;;;6.53;;
83732;SDS011;73710;49.968;8.338;2024-03-08T14:24:40;11.80;;;5.78;;
83732;SDS011;73710;49.968;8.338;2024-03-08T14:27:08;13.30;;;6.35;;
83732;SDS011;73710;49.968;8.338;2024-03-08T14:29:34;13.93;;;6.68;;
83732;SDS011;73710;49.968;8.338;2024-03-08T14:32:00;11.95;;;6.13;;
83732;SDS011;73710;49.968;8.338;2024-03-08T14:34:28;12.30;;;6.32;;
83732;SDS011;73710;49.968;8.338;2024-03-08T14:36:54;13.05;;;6.22;;
83732;SDS011;73710;49.968;8.338;2024-03-08T14:39:20;10.02;;;5.82;;
83732;SDS011;73710;49.968;8.338;2024-03-08T14:41:50;12.10;;;6.57;;
83732;SDS011;73710;49.968;8.338;2024-03-08T14:44:18;12.57;;;6.50;;
83732;SDS011;73710;49.968;8.338;2024-03-08T14:46:44;13.35;;;6.47;;
83732;SDS011;73710;49.968;8.338;2024-03-08T14:49:10;12.80;;;7.00;;
83732;SDS011;73710;49.968;8.338;2024-03-08T14:51:36;13.07;;;7.43;;
83732;SDS011;73710;49.968;8.338;2024-03-08T14:54:02;10.00;;;5.47;;
83732;SDS011;73710;49.968;8.338;2024-03-08T14:56:27;10.43;;;6.20;;
83732;SDS011;73710;49.968;8.338;2024-03-08T14:58:53;12.02;;;7.10;;
83732;SDS011;73710;49.968;8.338;2024-03-08T15:01:18;11.90;;;6.30;;
83732;SDS011;73710;49.968;8.338;2024-03-08T15:03:50;11.95;;;6.30;;
83732;SDS011;73710;49.968;8.338;2024-03-08T15:06:16;12.13;;;6.30;;
83732;SDS011;73710;49.968;8.338;2024-03-08T15:08:45;12.05;;;6.65;;
83732;SDS011;73710;49.968;8.338;2024-03-08T15:11:10;11.13;;;6.95;;
83732;SDS011;73710;49.968;8.338;2024-03-08T15:13:36;11.20;;;6.23;;
83732;SDS011;73710;49.968;8.338;2024-03-08T15:16:06;11.77;;;7.03;;
83732;SDS011;73710;49.968;8.338;2024-03-08T15:18:41;9.90;;;6.45;;
83732;SDS011;73710;49.968;8.338;2024-03-08T15:21:11;12.57;;;6.32;;
83732;SDS011;73710;49.968;8.338;2024-03-08T15:23:37;11.68;;;6.22;;
83732;SDS011;73710;49.968;8.338;2024-03-08T15:26:08;11.70;;;6.95;;
83732;SDS011;73710;49.968;8.338;2024-03-08T15:28:33;14.43;;;7.38;;
83732;SDS011;73710;49.968;8.338;2024-03-08T15:31:02;11.55;;;6.35;;
83732;SDS011;73710;49.968;8.338;2024-03-08T15:33:32;11.30;;;6.95;;
83732;SDS011;73710;49.968;8.338;2024-03-08T15:36:12;12.05;;;7.30;;
83732;SDS011;73710;49.968;8.338;2024-03-08T15:38:40;14.57;;;8.02;;
83732;SDS011;73710;49.968;8.338;2024-03-08T15:41:05;12.82;;;6.95;;
83732;SDS011;73710;49.968;8.338;2024-03-08T15:43:38;11.80;;;6.07;;
83732;SDS011;73710;49.968;8.338;2024-03-08T15:46:05;10.00;;;6.25;;
83732;SDS011;73710;49.968;8.338;2024-03-08T15:48:31;11.80;;;7.32;;
83732;SDS011;73710;49.968;8.338;2024-03-08T15:50:58;11.57;;;6.57;;
83732;SDS011;73710;49.968;8.338;2024-03-08T15:53:27;8.48;;;5.65;;
83732;SDS011;73710;49.968;8.338;2024-03-08T15:55:55;10.35;;;6.18;;
83732;SDS011;73710;49.968;8.338;2024-03-08T15:58:22;10.25;;;5.47;;
83732;SDS011;73710;49.968;8.338;2024-03-08T16:00:47;11.82;;;6.13;;
83732;SDS011;73710;49.968;8.338;2024-03-08T16:03:13;9.45;;;5.85;;
83732;SDS011;73710;49.968;8.338;2024-03-08T16:05:40;9.10;;;6.10;;
83732;SDS011;73710;49.968;8.338;2024-03-08T16:08:07;12.07;;;6.00;;
83732;SDS011;73710;49.968;8.338;2024-03-08T16:10:40;10.60;;;5.63;;
83732;SDS011;73710;49.968;8.338;2024-03-08T16:13:11;10.27;;;5.65;;
83732;SDS011;73710;49.968;8.338;2024-03-08T16:15:37;9.63;;;5.78;;
83732;SDS011;73710;49.968;8.338;2024-03-08T16:18:03;10.25;;;5.35;;
83732;SDS011;73710;49.968;8.338;2024-03-08T16:20:30;10.32;;;5.80;;
83732;SDS011;73710;49.968;8.338;2024-03-08T16:22:57;10.98;;;6.05;;
83732;SDS011;73710;49.968;8.338;2024-03-08T16:25:22;8.45;;;4.90;;
83732;SDS011;73710;49.968;8.338;2024-03-08T16:27:48;9.70;;;5.07;;
83732;SDS011;73710;49.968;8.338;2024-03-08T16:30:13;10.05;;;5.88;;
83732;SDS011;73710;49.968;8.338;2024-03-08T16:32:42;10.73;;;5.32;;
83732;SDS011;73710;49.968;8.338;2024-03-08T16:35:10;9.73;;;4.88;;
83732;SDS011;73710;49.968;8.338;2024-03-08T16:37:39;13.02;;;5.22;;
83732;SDS011;73710;49.968;8.338;2024-03-08T16:40:05;10.48;;;5.07;;
83732;SDS011;73710;49.968;8.338;2024-03-08T16:42:31;11.93;;;4.63;;
83732;SDS011;73710;49.968;8.338;2024-03-08T16:44:56;11.88;;;5.30;;
83732;SDS011;73710;49.968;8.338;2024-03-08T16:47:22;9.75;;;4.65;;
83732;SDS011;73710;49.968;8.338;2024-03-08T16:49:51;10.73;;;4.78;;
83732;SDS011;73710;49.968;8.338;2024-03-08T16:52:16;12.07;;;5.63;;
83732;SDS011;73710;49.968;8.338;2024-03-08T16:54:42;8.55;;;4.10;;
83732;SDS011;73710;49.968;8.338;2024-03-08T16:57:08;9.55;;;4.82;;
83732;SDS011;73710;49.968;8.338;2024-03-08T16:59:39;9.80;;;3.65;;
83732;SDS011;73710;49.968;8.338;2024-03-08T17:02:05;8.13;;;4.43;;
83732;SDS011;73710;49.968;8.338;2024-03-08T17:04:30;12.55;;;4.93;;
83732;SDS011;73710;49.968;8.338;2024-03-08T17:06:56;13.32;;;4.72;;
83732;SDS011;73710;49.968;8.338;2024-03-08T17:09:24;9.25;;;4.75;;
83732;SDS011;73710;49.968;8.338;2024-03-08T17:11:50;11.23;;;4.35;;
83732;SDS011;73710;49.968;8.338;2024-03-08T17:14:16;8.63;;;4.20;;
83732;SDS011;73710;49.968;8.338;2024-03-08T17:16:43;10.05;;;3.55;;
83732;SDS011;73710;49.968;8.338;2024-03-08T17:19:09;8.93;;;4.32;;
83732;SDS011;73710;49.968;8.338;2024-03-08T17:21:34;9.98;;;4.93;;
83732;SDS011;73710;49.968;8.338;2024-03-08T17:24:00;8.20;;;4.75;;
83732;SDS011;73710;49.968;8.338;2024-03-08T17:26:28;10.20;;;4.85;;
83732;SDS011;73710;49.968;8.338;2024-03-08T17:28:53;7.83;;;3.60;;
83732;SDS011;73710;49.968;8.338;2024-03-08T17:31:19;9.45;;;3.80;;
83732;SDS011;73710;49.968;8.338;2024-03-08T17:33:46;10.50;;;4.25;;
83732;SDS011;73710;49.968;8.338;2024-03-08T17:36:12;12.68;;;4.35;;
83732;SDS011;73710;49.968;8.338;2024-03-08T17:38:41;7.40;;;3.58;;
83732;SDS011;73710;49.968;8.338;2024-03-08T17:41:11;8.50;;;3.17;;
83732;SDS011;73710;49.968;8.338;2024-03-08T17:43:38;13.27;;;3.85;;
83732;SDS011;73710;49.968;8.338;2024-03-08T17:46:06;12.07;;;5.22;;
83732;SDS011;73710;49.968;8.338;2024-03-08T17:48:32;10.50;;;5.63;;
83732;SDS011;73710;49.968;8.338;2024-03-08T17:50:58;9.65;;;4.07;;
83732;SDS011;73710;49.968;8.338;2024-03-08T17:53:23;7.32;;;3.90;;
83732;SDS011;73710;49.968;8.338;2024-03-08T17:55:49;8.82;;;3.35;;
83732;SDS011;73710;49.968;8.338;2024-03-08T17:58:16;13.07;;;4.40;;
83732;SDS011;73710;49.968;8.338;2024-03-08T18:00:42;8.18;;;3.83;;
83732;SDS011;73710;49.968;8.338;2024-03-08T18:03:08;11.23;;;3.63;;
83732;SDS011;73710;49.968;8.338;2024-03-08T18:05:36;9.43;;;4.38;;
83732;SDS011;73710;49.968;8.338;2024-03-08T18:08:03;8.73;;;3.92;;
83732;SDS011;73710;49.968;8.338;2024-03-08T18:10:30;8.27;;;3.33;;
83732;SDS011;73710;49.968;8.338;2024-03-08T18:12:58;8.77;;;4.38;;
83732;SDS011;73710;49.968;8.338;2024-03-08T18:15:25;11.48;;;5.00;;
83732;SDS011;73710;49.968;8.338;2024-03-08T18:17:58;11.82;;;4.50;;
83732;SDS011;73710;49.968;8.338;2024-03-08T18:20:25;11.40;;;3.97;;
83732;SDS011;73710;49.968;8.338;2024-03-08T18:23:00;8.55;;;4.35;;
83732;SDS011;73710;49.968;8.338;2024-03-08T18:25:28;7.82;;;3.50;;
83732;SDS011;73710;49.968;8.338;2024-03-08T18:27:55;10.68;;;4.53;;
83732;SDS011;73710;49.968;8.338;2024-03-08T18:30:24;12.63;;;4.22;;
83732;SDS011;73710;49.968;8.338;2024-03-08T18:32:50;9.15;;;3.95;;
83732;SDS011;73710;49.968;8.338;2024-03-08T18:35:19;10.23;;;4.15;;
83732;SDS011;73710;49.968;8.338;2024-03-08T18:37:46;7.95;;;4.05;;
83732;SDS011;73710;49.968;8.338;2024-03-08T18:40:14;7.53;;;2.90;;
83732;SDS011;73710;49.968;8.338;2024-03-08T18:42:43;8.13;;;3.55;;
83732;SDS011;73710;49.968;8.338;2024-03-08T18:45:10;9.27;;;4.00;;
83732;SDS011;73710;49.968;8.338;2024-03-08T18:47:42;6.57;;;3.05;;
83732;SDS011;73710;49.968;8.338;2024-03-08T18:50:11;9.63;;;3.45;;
83732;SDS011;73710;49.968;8.338;2024-03-08T18:52:37;4.82;;;2.25;;
83732;SDS011;73710;49.968;8.338;2024-03-08T18:55:04;6.80;;;3.22;;
83732;SDS011;73710;49.968;8.338;2024-03-08T18:57:44;5.47;;;2.67;;
83732;SDS011;73710;49.968;8.338;2024-03-08T19:00:14;5.78;;;3.15;;
83732;SDS011;73710;49.968;8.338;2024-03-08T19:02:47;8.57;;;2.95;;
83732;SDS011;73710;49.968;8.338;2024-03-08T19:05:16;6.45;;;2.47;;
83732;SDS011;73710;49.968;8.338;2024-03-08T19:07:49;8.25;;;3.40;;
83732;SDS011;73710;49.968;8.338;2024-03-08T19:10:16;6.65;;;2.83;;
83732;SDS011;73710;49.968;8.338;2024-03-08T19:15:13;9.73;;;3.45;;
83732;SDS011;73710;49.968;8.338;2024-03-08T19:17:41;7.72;;;3.67;;
83732;SDS011;73710;49.968;8.338;2024-03-08T19:20:10;7.78;;;3.42;;
83732;SDS011;73710;49.968;8.338;2024-03-08T19:22:42;8.55;;;3.53;;
83732;SDS011;73710;49.968;8.338;2024-03-08T19:25:08;14.07;;;3.55;;
83732;SDS011;73710;49.968;8.338;2024-03-08T19:27:34;12.68;;;3.78;;
83732;SDS011;73710;49.968;8.338;2024-03-08T19:30:02;9.63;;;4.03;;
83732;SDS011;73710;49.968;8.338;2024-03-08T19:32:29;6.47;;;3.33;;
83732;SDS011;73710;49.968;8.338;2024-03-08T19:34:54;8.23;;;4.07;;
83732;SDS011;73710;49.968;8.338;2024-03-08T19:37:20;8.68;;;3.78;;
83732;SDS011;73710;49.968;8.338;2024-03-08T19:39:45;8.05;;;3.80;;
83732;SDS011;73710;49.968;8.338;2024-03-08T19:42:11;7.80;;;3.95;;
83732;SDS011;73710;49.968;8.338;2024-03-08T19:44:37;10.60;;;3.75;;
83732;SDS011;73710;49.968;8.338;2024-03-08T19:47:04;8.77;;;4.20;;
83732;SDS011;73710;49.968;8.338;2024-03-08T19:49:30;12.85;;;5.10;;
83732;SDS011;73710;49.968;8.338;2024-03-08T19:51:57;6.97;;;3.22;;
83732;SDS011;73710;49.968;8.338;2024-03-08T19:54:24;10.60;;;4.15;;
83732;SDS011;73710;49.968;8.338;2024-03-08T19:56:49;9.98;;;4.05;;